メインページ
METAR-TAF:

METAR-TAF

空港 :

インディアナポリス, インディアナ州, アメリカ合衆国

インディアナポリス国際空港

緯度: 39-43-30N, 経度: 086-16-55W, 海抜: 243m

現時点の気象観測

当レポートは23分前の15:28(UTC)に作成
北/北東の風 12kt、最大17ktの突風を伴う
気温 6°C
湿度 56%
気圧 1024 hPa
視程: 16.1km
高度2300ftの雲はほとんどない
高度3400ftの千切れ雲あり

METAR: KIND 191528Z 02012G17KT 10SM FEW023 BKN034 06/M02 A3025 RMK AO2 T00561017

時間: 11:51 (15:51 UTC)

予報

当レポートは1時間23分前の14:28(UTC)に作成
予報は19日の 14時(UTC)から 20日の 18時(UTC)まで有効
の風 14kt
視程: 10km
高度2500ftの曇り
19日の 1600時(UTC)から
の風 12kt、最大20ktの突風を伴う
視程: 10km
高度10000ftの雲は散在している

TAF: KIND 191428Z 1914/2018 36014KT P6SM OVC025 FM191600 35012G20KT P6SM SCT100

4,000以上の空港の気象観測と天気予報(METAR報とTAF報)

利用可能な観測所は地図上に黄色い丸と赤い丸で示す。

丸の上にカーソルを重ねると観測所名を参照できる。

次にクリックすると気象観測と天気予報を参照できる。

マップの切り替え:黒色「×」印の緑ボタンをクリックして拡大、「-」印の緑ボタンをクリックして縮小、緑色の三角印をクリックして隣りの地図に切り替え


METAR-TAF: